sensor_id;sensor_type;location;lat;lon;timestamp;P1;durP1;ratioP1;P2;durP2;ratioP2
32838;SDS011;19182;41.820;12.808;2023-04-03T00:00:45;6.50;;;2.50;;
32838;SDS011;19182;41.820;12.808;2023-04-03T00:03:10;5.35;;;2.60;;
32838;SDS011;19182;41.820;12.808;2023-04-03T00:05:36;7.35;;;2.45;;
32838;SDS011;19182;41.820;12.808;2023-04-03T00:08:02;4.05;;;2.20;;
32838;SDS011;19182;41.820;12.808;2023-04-03T00:10:29;4.13;;;2.15;;
32838;SDS011;19182;41.820;12.808;2023-04-03T00:12:55;5.35;;;2.75;;
32838;SDS011;19182;41.820;12.808;2023-04-03T00:15:21;4.28;;;2.25;;
32838;SDS011;19182;41.820;12.808;2023-04-03T00:17:46;5.78;;;3.05;;
32838;SDS011;19182;41.820;12.808;2023-04-03T00:20:12;6.57;;;2.85;;
32838;SDS011;19182;41.820;12.808;2023-04-03T00:22:38;3.78;;;2.00;;
32838;SDS011;19182;41.820;12.808;2023-04-03T00:25:05;7.57;;;2.50;;
32838;SDS011;19182;41.820;12.808;2023-04-03T00:27:33;5.18;;;2.40;;
32838;SDS011;19182;41.820;12.808;2023-04-03T00:30:00;10.73;;;3.17;;
32838;SDS011;19182;41.820;12.808;2023-04-03T00:32:27;3.83;;;2.78;;
32838;SDS011;19182;41.820;12.808;2023-04-03T00:34:53;3.95;;;2.40;;
32838;SDS011;19182;41.820;12.808;2023-04-03T00:37:19;4.35;;;2.40;;
32838;SDS011;19182;41.820;12.808;2023-04-03T00:39:46;5.43;;;2.13;;
32838;SDS011;19182;41.820;12.808;2023-04-03T00:42:12;4.22;;;2.95;;
32838;SDS011;19182;41.820;12.808;2023-04-03T00:47:04;3.13;;;2.10;;
32838;SDS011;19182;41.820;12.808;2023-04-03T00:49:32;4.50;;;2.60;;
32838;SDS011;19182;41.820;12.808;2023-04-03T00:51:58;5.35;;;2.42;;
32838;SDS011;19182;41.820;12.808;2023-04-03T00:54:24;6.13;;;3.05;;
32838;SDS011;19182;41.820;12.808;2023-04-03T00:56:51;9.25;;;4.13;;
32838;SDS011;19182;41.820;12.808;2023-04-03T00:59:21;6.67;;;3.10;;
32838;SDS011;19182;41.820;12.808;2023-04-03T01:01:55;4.93;;;2.03;;
32838;SDS011;19182;41.820;12.808;2023-04-03T01:04:29;4.22;;;2.03;;
32838;SDS011;19182;41.820;12.808;2023-04-03T01:07:35;6.15;;;2.38;;
32838;SDS011;19182;41.820;12.808;2023-04-03T01:10:04;2.20;;;2.00;;
32838;SDS011;19182;41.820;12.808;2023-04-03T01:14:59;4.35;;;2.50;;
32838;SDS011;19182;41.820;12.808;2023-04-03T01:17:33;5.15;;;2.78;;
32838;SDS011;19182;41.820;12.808;2023-04-03T01:25:45;4.85;;;2.75;;
32838;SDS011;19182;41.820;12.808;2023-04-03T01:28:16;13.68;;;4.43;;
32838;SDS011;19182;41.820;12.808;2023-04-03T01:33:15;2.55;;;2.10;;
32838;SDS011;19182;41.820;12.808;2023-04-03T01:35:42;4.50;;;2.35;;
32838;SDS011;19182;41.820;12.808;2023-04-03T01:38:09;5.43;;;2.33;;
32838;SDS011;19182;41.820;12.808;2023-04-03T01:40:35;7.10;;;2.55;;
32838;SDS011;19182;41.820;12.808;2023-04-03T01:43:01;2.65;;;1.88;;
32838;SDS011;19182;41.820;12.808;2023-04-03T01:45:26;2.55;;;1.70;;
32838;SDS011;19182;41.820;12.808;2023-04-03T01:47:53;2.22;;;1.75;;
32838;SDS011;19182;41.820;12.808;2023-04-03T01:50:19;9.05;;;2.72;;
32838;SDS011;19182;41.820;12.808;2023-04-03T01:52:46;2.92;;;1.83;;
32838;SDS011;19182;41.820;12.808;2023-04-03T01:55:12;6.72;;;1.80;;
32838;SDS011;19182;41.820;12.808;2023-04-03T01:57:37;4.43;;;1.60;;
32838;SDS011;19182;41.820;12.808;2023-04-03T02:00:03;5.25;;;1.63;;
32838;SDS011;19182;41.820;12.808;2023-04-03T02:02:32;3.72;;;1.67;;
32838;SDS011;19182;41.820;12.808;2023-04-03T02:04:58;3.35;;;1.95;;
32838;SDS011;19182;41.820;12.808;2023-04-03T02:07:24;3.35;;;1.40;;
32838;SDS011;19182;41.820;12.808;2023-04-03T02:09:49;4.90;;;1.88;;
32838;SDS011;19182;41.820;12.808;2023-04-03T02:12:15;5.07;;;1.52;;
32838;SDS011;19182;41.820;12.808;2023-04-03T02:14:41;1.90;;;1.75;;
32838;SDS011;19182;41.820;12.808;2023-04-03T02:17:07;2.08;;;1.60;;
32838;SDS011;19182;41.820;12.808;2023-04-03T02:19:36;3.17;;;1.50;;
32838;SDS011;19182;41.820;12.808;2023-04-03T02:22:02;2.92;;;1.30;;
32838;SDS011;19182;41.820;12.808;2023-04-03T02:24:31;2.50;;;1.45;;
32838;SDS011;19182;41.820;12.808;2023-04-03T02:26:56;3.90;;;1.70;;
32838;SDS011;19182;41.820;12.808;2023-04-03T02:29:22;3.60;;;1.70;;
32838;SDS011;19182;41.820;12.808;2023-04-03T02:31:49;3.00;;;1.70;;
32838;SDS011;19182;41.820;12.808;2023-04-03T02:34:15;3.92;;;1.75;;
32838;SDS011;19182;41.820;12.808;2023-04-03T02:36:41;8.23;;;1.90;;
32838;SDS011;19182;41.820;12.808;2023-04-03T02:39:07;9.23;;;5.75;;
32838;SDS011;19182;41.820;12.808;2023-04-03T02:41:33;5.68;;;1.60;;
32838;SDS011;19182;41.820;12.808;2023-04-03T02:44:02;1.83;;;1.30;;
32838;SDS011;19182;41.820;12.808;2023-04-03T02:46:29;1.75;;;1.40;;
32838;SDS011;19182;41.820;12.808;2023-04-03T02:49:12;2.30;;;1.50;;
32838;SDS011;19182;41.820;12.808;2023-04-03T02:51:37;2.10;;;1.60;;
32838;SDS011;19182;41.820;12.808;2023-04-03T02:54:03;3.50;;;1.40;;
32838;SDS011;19182;41.820;12.808;2023-04-03T02:56:30;2.30;;;1.73;;
32838;SDS011;19182;41.820;12.808;2023-04-03T02:58:56;2.22;;;1.40;;
32838;SDS011;19182;41.820;12.808;2023-04-03T03:01:22;6.30;;;1.90;;
32838;SDS011;19182;41.820;12.808;2023-04-03T03:03:47;4.38;;;1.90;;
32838;SDS011;19182;41.820;12.808;2023-04-03T03:06:14;2.53;;;1.60;;
32838;SDS011;19182;41.820;12.808;2023-04-03T03:08:41;4.53;;;1.50;;
32838;SDS011;19182;41.820;12.808;2023-04-03T03:11:07;3.00;;;1.67;;
32838;SDS011;19182;41.820;12.808;2023-04-03T03:13:35;2.20;;;1.50;;
32838;SDS011;19182;41.820;12.808;2023-04-03T03:16:01;2.30;;;1.80;;
32838;SDS011;19182;41.820;12.808;2023-04-03T03:18:28;6.75;;;2.20;;
32838;SDS011;19182;41.820;12.808;2023-04-03T03:20:56;6.50;;;3.25;;
32838;SDS011;19182;41.820;12.808;2023-04-03T03:23:23;3.70;;;2.47;;
32838;SDS011;19182;41.820;12.808;2023-04-03T03:25:54;6.22;;;2.67;;
32838;SDS011;19182;41.820;12.808;2023-04-03T03:28:25;5.20;;;2.38;;
32838;SDS011;19182;41.820;12.808;2023-04-03T03:30:51;3.13;;;2.40;;
32838;SDS011;19182;41.820;12.808;2023-04-03T03:33:18;6.22;;;2.50;;
32838;SDS011;19182;41.820;12.808;2023-04-03T03:35:44;5.28;;;2.40;;
32838;SDS011;19182;41.820;12.808;2023-04-03T03:38:10;2.22;;;1.85;;
32838;SDS011;19182;41.820;12.808;2023-04-03T03:40:37;3.83;;;2.20;;
32838;SDS011;19182;41.820;12.808;2023-04-03T03:43:03;3.60;;;2.40;;
32838;SDS011;19182;41.820;12.808;2023-04-03T03:45:28;4.43;;;1.98;;
32838;SDS011;19182;41.820;12.808;2023-04-03T03:47:55;2.53;;;1.90;;
32838;SDS011;19182;41.820;12.808;2023-04-03T03:50:20;6.75;;;3.58;;
32838;SDS011;19182;41.820;12.808;2023-04-03T03:52:47;5.93;;;3.67;;
32838;SDS011;19182;41.820;12.808;2023-04-03T03:55:13;4.72;;;2.80;;
32838;SDS011;19182;41.820;12.808;2023-04-03T03:57:40;4.88;;;2.58;;
32838;SDS011;19182;41.820;12.808;2023-04-03T04:00:06;8.27;;;2.72;;
32838;SDS011;19182;41.820;12.808;2023-04-03T04:02:33;4.57;;;2.05;;
32838;SDS011;19182;41.820;12.808;2023-04-03T04:04:59;7.28;;;3.17;;
32838;SDS011;19182;41.820;12.808;2023-04-03T04:07:25;6.05;;;3.13;;
32838;SDS011;19182;41.820;12.808;2023-04-03T04:09:54;5.68;;;2.65;;
32838;SDS011;19182;41.820;12.808;2023-04-03T04:12:20;5.93;;;3.05;;
32838;SDS011;19182;41.820;12.808;2023-04-03T04:14:46;4.80;;;2.63;;
32838;SDS011;19182;41.820;12.808;2023-04-03T04:17:13;4.00;;;2.40;;
32838;SDS011;19182;41.820;12.808;2023-04-03T04:19:39;3.13;;;2.50;;
32838;SDS011;19182;41.820;12.808;2023-04-03T04:22:05;5.63;;;2.65;;
32838;SDS011;19182;41.820;12.808;2023-04-03T04:24:31;3.50;;;2.80;;
32838;SDS011;19182;41.820;12.808;2023-04-03T04:26:56;4.20;;;2.65;;
32838;SDS011;19182;41.820;12.808;2023-04-03T04:29:22;4.70;;;2.20;;
32838;SDS011;19182;41.820;12.808;2023-04-03T04:31:48;4.53;;;2.85;;
32838;SDS011;19182;41.820;12.808;2023-04-03T04:34:15;3.30;;;2.30;;
32838;SDS011;19182;41.820;12.808;2023-04-03T04:36:42;3.85;;;2.30;;
32838;SDS011;19182;41.820;12.808;2023-04-03T04:39:08;3.28;;;2.40;;
32838;SDS011;19182;41.820;12.808;2023-04-03T04:41:35;3.83;;;2.20;;
32838;SDS011;19182;41.820;12.808;2023-04-03T04:44:01;3.05;;;2.30;;
32838;SDS011;19182;41.820;12.808;2023-04-03T04:46:28;3.50;;;2.05;;
32838;SDS011;19182;41.820;12.808;2023-04-03T04:48:56;2.95;;;2.10;;
32838;SDS011;19182;41.820;12.808;2023-04-03T04:51:22;6.90;;;2.95;;
32838;SDS011;19182;41.820;12.808;2023-04-03T04:53:47;5.15;;;2.22;;
32838;SDS011;19182;41.820;12.808;2023-04-03T04:56:13;3.92;;;1.95;;
32838;SDS011;19182;41.820;12.808;2023-04-03T04:58:39;2.00;;;1.80;;
32838;SDS011;19182;41.820;12.808;2023-04-03T05:01:06;5.15;;;2.05;;
32838;SDS011;19182;41.820;12.808;2023-04-03T05:03:33;3.25;;;1.90;;
32838;SDS011;19182;41.820;12.808;2023-04-03T05:05:59;9.27;;;2.22;;
32838;SDS011;19182;41.820;12.808;2023-04-03T05:08:25;17.88;;;2.92;;
32838;SDS011;19182;41.820;12.808;2023-04-03T05:10:51;3.42;;;1.95;;
32838;SDS011;19182;41.820;12.808;2023-04-03T05:13:18;2.35;;;2.10;;
32838;SDS011;19182;41.820;12.808;2023-04-03T05:15:44;4.65;;;2.30;;
32838;SDS011;19182;41.820;12.808;2023-04-03T05:18:10;2.78;;;1.98;;
32838;SDS011;19182;41.820;12.808;2023-04-03T05:23:17;7.25;;;3.65;;
32838;SDS011;19182;41.820;12.808;2023-04-03T05:25:44;6.13;;;2.45;;
32838;SDS011;19182;41.820;12.808;2023-04-03T05:28:13;4.65;;;2.30;;
32838;SDS011;19182;41.820;12.808;2023-04-03T05:30:39;5.18;;;2.55;;
32838;SDS011;19182;41.820;12.808;2023-04-03T05:33:05;5.20;;;3.15;;
32838;SDS011;19182;41.820;12.808;2023-04-03T05:35:31;8.50;;;3.08;;
32838;SDS011;19182;41.820;12.808;2023-04-03T05:37:57;7.15;;;4.15;;
32838;SDS011;19182;41.820;12.808;2023-04-03T05:40:22;7.95;;;3.50;;
32838;SDS011;19182;41.820;12.808;2023-04-03T05:42:48;6.50;;;4.22;;
32838;SDS011;19182;41.820;12.808;2023-04-03T05:45:14;10.18;;;4.22;;
32838;SDS011;19182;41.820;12.808;2023-04-03T05:47:40;8.00;;;3.63;;
32838;SDS011;19182;41.820;12.808;2023-04-03T05:50:06;5.15;;;3.28;;
32838;SDS011;19182;41.820;12.808;2023-04-03T05:52:33;7.45;;;3.67;;
32838;SDS011;19182;41.820;12.808;2023-04-03T05:55:03;7.72;;;3.80;;
32838;SDS011;19182;41.820;12.808;2023-04-03T05:57:29;7.25;;;3.33;;
32838;SDS011;19182;41.820;12.808;2023-04-03T05:59:55;3.67;;;2.92;;
32838;SDS011;19182;41.820;12.808;2023-04-03T06:02:21;4.72;;;3.42;;
32838;SDS011;19182;41.820;12.808;2023-04-03T06:04:49;6.55;;;3.33;;
32838;SDS011;19182;41.820;12.808;2023-04-03T06:07:19;5.25;;;3.25;;
32838;SDS011;19182;41.820;12.808;2023-04-03T06:09:49;6.05;;;3.00;;
32838;SDS011;19182;41.820;12.808;2023-04-03T06:12:16;6.75;;;3.20;;
32838;SDS011;19182;41.820;12.808;2023-04-03T06:14:42;11.45;;;3.03;;
32838;SDS011;19182;41.820;12.808;2023-04-03T06:17:07;7.68;;;3.70;;
32838;SDS011;19182;41.820;12.808;2023-04-03T06:19:34;9.63;;;3.40;;
32838;SDS011;19182;41.820;12.808;2023-04-03T06:22:03;5.50;;;2.95;;
32838;SDS011;19182;41.820;12.808;2023-04-03T06:24:31;7.63;;;4.57;;
32838;SDS011;19182;41.820;12.808;2023-04-03T06:26:57;10.00;;;4.68;;
32838;SDS011;19182;41.820;12.808;2023-04-03T06:29:23;9.13;;;4.43;;
32838;SDS011;19182;41.820;12.808;2023-04-03T06:31:49;8.13;;;3.97;;
32838;SDS011;19182;41.820;12.808;2023-04-03T06:34:16;5.05;;;3.03;;
32838;SDS011;19182;41.820;12.808;2023-04-03T06:36:43;5.20;;;3.28;;
32838;SDS011;19182;41.820;12.808;2023-04-03T06:39:17;6.38;;;2.88;;
32838;SDS011;19182;41.820;12.808;2023-04-03T06:41:49;4.80;;;1.90;;
32838;SDS011;19182;41.820;12.808;2023-04-03T06:44:15;1.92;;;1.60;;
32838;SDS011;19182;41.820;12.808;2023-04-03T06:46:42;4.60;;;1.30;;
32838;SDS011;19182;41.820;12.808;2023-04-03T06:49:08;3.15;;;1.17;;
32838;SDS011;19182;41.820;12.808;2023-04-03T06:51:35;6.32;;;1.10;;
32838;SDS011;19182;41.820;12.808;2023-04-03T06:54:01;4.82;;;0.77;;
32838;SDS011;19182;41.820;12.808;2023-04-03T06:56:28;1.20;;;0.80;;
32838;SDS011;19182;41.820;12.808;2023-04-03T06:58:54;2.63;;;0.85;;
32838;SDS011;19182;41.820;12.808;2023-04-03T07:01:22;0.68;;;0.60;;
32838;SDS011;19182;41.820;12.808;2023-04-03T07:03:51;1.60;;;0.68;;
32838;SDS011;19182;41.820;12.808;2023-04-03T07:06:17;0.70;;;0.60;;
32838;SDS011;19182;41.820;12.808;2023-04-03T07:08:45;3.60;;;0.75;;
32838;SDS011;19182;41.820;12.808;2023-04-03T07:11:13;1.13;;;0.57;;
32838;SDS011;19182;41.820;12.808;2023-04-03T07:13:39;3.22;;;0.60;;
32838;SDS011;19182;41.820;12.808;2023-04-03T07:16:06;1.33;;;0.70;;
32838;SDS011;19182;41.820;12.808;2023-04-03T07:18:33;2.17;;;1.30;;
32838;SDS011;19182;41.820;12.808;2023-04-03T07:20:59;2.67;;;1.00;;
32838;SDS011;19182;41.820;12.808;2023-04-03T07:23:27;0.95;;;0.40;;
32838;SDS011;19182;41.820;12.808;2023-04-03T07:25:53;2.45;;;0.80;;
32838;SDS011;19182;41.820;12.808;2023-04-03T07:28:20;2.20;;;0.70;;
32838;SDS011;19182;41.820;12.808;2023-04-03T07:30:50;1.02;;;0.80;;
32838;SDS011;19182;41.820;12.808;2023-04-03T07:33:18;1.80;;;0.80;;
32838;SDS011;19182;41.820;12.808;2023-04-03T07:35:44;1.35;;;0.80;;
32838;SDS011;19182;41.820;12.808;2023-04-03T07:38:12;1.95;;;0.77;;
32838;SDS011;19182;41.820;12.808;2023-04-03T07:40:38;1.48;;;0.80;;
32838;SDS011;19182;41.820;12.808;2023-04-03T07:43:04;1.35;;;0.77;;
32838;SDS011;19182;41.820;12.808;2023-04-03T07:45:31;1.65;;;0.70;;
32838;SDS011;19182;41.820;12.808;2023-04-03T07:47:59;2.83;;;1.15;;
32838;SDS011;19182;41.820;12.808;2023-04-03T07:50:25;3.63;;;1.27;;
32838;SDS011;19182;41.820;12.808;2023-04-03T07:52:52;2.05;;;0.90;;
32838;SDS011;19182;41.820;12.808;2023-04-03T07:55:21;1.85;;;0.95;;
32838;SDS011;19182;41.820;12.808;2023-04-03T07:57:47;1.83;;;1.10;;
32838;SDS011;19182;41.820;12.808;2023-04-03T08:00:14;3.35;;;1.25;;
32838;SDS011;19182;41.820;12.808;2023-04-03T08:02:42;2.58;;;1.13;;
32838;SDS011;19182;41.820;12.808;2023-04-03T08:05:09;1.73;;;1.10;;
32838;SDS011;19182;41.820;12.808;2023-04-03T08:07:37;1.55;;;1.23;;
32838;SDS011;19182;41.820;12.808;2023-04-03T08:10:03;3.33;;;1.20;;
32838;SDS011;19182;41.820;12.808;2023-04-03T08:12:29;2.33;;;1.20;;
32838;SDS011;19182;41.820;12.808;2023-04-03T08:14:57;2.38;;;1.35;;
32838;SDS011;19182;41.820;12.808;2023-04-03T08:17:25;3.92;;;1.50;;
32838;SDS011;19182;41.820;12.808;2023-04-03T08:19:51;3.75;;;1.70;;
32838;SDS011;19182;41.820;12.808;2023-04-03T08:22:17;6.03;;;1.70;;
32838;SDS011;19182;41.820;12.808;2023-04-03T08:24:43;4.28;;;1.65;;
32838;SDS011;19182;41.820;12.808;2023-04-03T08:27:09;2.22;;;1.40;;
32838;SDS011;19182;41.820;12.808;2023-04-03T08:29:36;4.28;;;1.35;;
32838;SDS011;19182;41.820;12.808;2023-04-03T08:32:04;3.05;;;1.50;;
32838;SDS011;19182;41.820;12.808;2023-04-03T08:34:30;3.13;;;0.90;;
32838;SDS011;19182;41.820;12.808;2023-04-03T08:36:59;1.40;;;1.20;;
32838;SDS011;19182;41.820;12.808;2023-04-03T08:39:26;2.15;;;0.80;;
32838;SDS011;19182;41.820;12.808;2023-04-03T08:41:53;4.63;;;1.20;;
32838;SDS011;19182;41.820;12.808;2023-04-03T08:49:33;3.00;;;1.20;;
32838;SDS011;19182;41.820;12.808;2023-04-03T08:52:08;3.85;;;1.10;;
32838;SDS011;19182;41.820;12.808;2023-04-03T08:54:41;3.13;;;1.02;;
32838;SDS011;19182;41.820;12.808;2023-04-03T08:57:15;2.58;;;1.33;;
32838;SDS011;19182;41.820;12.808;2023-04-03T08:59:45;3.10;;;1.33;;
32838;SDS011;19182;41.820;12.808;2023-04-03T09:10:58;1.45;;;1.20;;
32838;SDS011;19182;41.820;12.808;2023-04-03T09:19:05;2.58;;;1.25;;
32838;SDS011;19182;41.820;12.808;2023-04-03T09:21:58;3.03;;;1.27;;
32838;SDS011;19182;41.820;12.808;2023-04-03T09:24:28;3.83;;;1.23;;
32838;SDS011;19182;41.820;12.808;2023-04-03T09:27:03;1.15;;;1.02;;
32838;SDS011;19182;41.820;12.808;2023-04-03T09:29:33;2.25;;;1.00;;
32838;SDS011;19182;41.820;12.808;2023-04-03T09:34:55;3.90;;;0.98;;
32838;SDS011;19182;41.820;12.808;2023-04-03T09:37:37;1.08;;;0.90;;
32838;SDS011;19182;41.820;12.808;2023-04-03T09:40:29;3.17;;;0.93;;
32838;SDS011;19182;41.820;12.808;2023-04-03T09:42:59;2.95;;;1.30;;
32838;SDS011;19182;41.820;12.808;2023-04-03T09:45:44;3.45;;;1.10;;
32838;SDS011;19182;41.820;12.808;2023-04-03T09:56:00;2.58;;;1.48;;
32838;SDS011;19182;41.820;12.808;2023-04-03T09:58:30;2.95;;;1.55;;
32838;SDS011;19182;41.820;12.808;2023-04-03T10:01:03;1.73;;;1.20;;
32838;SDS011;19182;41.820;12.808;2023-04-03T10:06:04;6.53;;;1.77;;
32838;SDS011;19182;41.820;12.808;2023-04-03T10:08:58;3.95;;;1.80;;
32838;SDS011;19182;41.820;12.808;2023-04-03T10:11:27;5.10;;;1.98;;
32838;SDS011;19182;41.820;12.808;2023-04-03T10:16:45;6.78;;;1.73;;
32838;SDS011;19182;41.820;12.808;2023-04-03T10:19:34;2.25;;;1.40;;
32838;SDS011;19182;41.820;12.808;2023-04-03T10:22:54;2.45;;;1.30;;
32838;SDS011;19182;41.820;12.808;2023-04-03T10:28:01;2.97;;;1.30;;
32838;SDS011;19182;41.820;12.808;2023-04-03T10:33:20;1.42;;;1.00;;
32838;SDS011;19182;41.820;12.808;2023-04-03T10:41:23;2.20;;;1.13;;
32838;SDS011;19182;41.820;12.808;2023-04-03T10:53:01;2.30;;;1.30;;
32838;SDS011;19182;41.820;12.808;2023-04-03T10:58:43;1.80;;;0.50;;
32838;SDS011;19182;41.820;12.808;2023-04-03T11:01:17;3.28;;;1.25;;
32838;SDS011;19182;41.820;12.808;2023-04-03T11:03:51;2.45;;;0.90;;
32838;SDS011;19182;41.820;12.808;2023-04-03T11:06:19;1.75;;;0.80;;
32838;SDS011;19182;41.820;12.808;2023-04-03T11:08:50;0.60;;;0.50;;
32838;SDS011;19182;41.820;12.808;2023-04-03T11:11:26;1.45;;;0.95;;
32838;SDS011;19182;41.820;12.808;2023-04-03T11:13:57;2.88;;;0.88;;
32838;SDS011;19182;41.820;12.808;2023-04-03T11:16:46;0.75;;;0.47;;
32838;SDS011;19182;41.820;12.808;2023-04-03T11:22:08;1.35;;;0.70;;
32838;SDS011;19182;41.820;12.808;2023-04-03T11:24:41;0.98;;;0.50;;
32838;SDS011;19182;41.820;12.808;2023-04-03T11:27:15;0.43;;;0.43;;
32838;SDS011;19182;41.820;12.808;2023-04-03T11:29:47;1.25;;;0.30;;
32838;SDS011;19182;41.820;12.808;2023-04-03T11:34:51;0.60;;;0.40;;
32838;SDS011;19182;41.820;12.808;2023-04-03T11:37:41;0.90;;;0.20;;
32838;SDS011;19182;41.820;12.808;2023-04-03T11:50:51;1.02;;;0.50;;
32838;SDS011;19182;41.820;12.808;2023-04-03T11:53:39;0.85;;;0.40;;
32838;SDS011;19182;41.820;12.808;2023-04-03T11:56:47;0.50;;;0.40;;
32838;SDS011;19182;41.820;12.808;2023-04-03T12:04:11;0.65;;;0.40;;
32838;SDS011;19182;41.820;12.808;2023-04-03T12:10:14;0.68;;;0.40;;
32838;SDS011;19182;41.820;12.808;2023-04-03T12:16:04;1.35;;;0.38;;
32838;SDS011;19182;41.820;12.808;2023-04-03T12:21:19;1.80;;;0.40;;
32838;SDS011;19182;41.820;12.808;2023-04-03T12:43:57;0.32;;;0.30;;
32838;SDS011;19182;41.820;12.808;2023-04-03T12:46:35;0.68;;;0.40;;
32838;SDS011;19182;41.820;12.808;2023-04-03T12:51:48;0.43;;;0.43;;
32838;SDS011;19182;41.820;12.808;2023-04-03T12:59:46;1.45;;;0.65;;
32838;SDS011;19182;41.820;12.808;2023-04-03T13:04:58;0.70;;;0.43;;
32838;SDS011;19182;41.820;12.808;2023-04-03T13:07:36;0.63;;;0.40;;
32838;SDS011;19182;41.820;12.808;2023-04-03T13:12:56;2.97;;;0.40;;
32838;SDS011;19182;41.820;12.808;2023-04-03T13:15:39;2.40;;;0.50;;
32838;SDS011;19182;41.820;12.808;2023-04-03T13:18:23;0.60;;;0.50;;
32838;SDS011;19182;41.820;12.808;2023-04-03T13:21:06;0.30;;;0.30;;
32838;SDS011;19182;41.820;12.808;2023-04-03T13:23:49;1.05;;;0.50;;
32838;SDS011;19182;41.820;12.808;2023-04-03T13:26:17;0.20;;;0.20;;
32838;SDS011;19182;41.820;12.808;2023-04-03T13:28:45;0.88;;;0.85;;
32838;SDS011;19182;41.820;12.808;2023-04-03T13:34:03;0.88;;;0.30;;
32838;SDS011;19182;41.820;12.808;2023-04-03T13:36:45;0.57;;;0.30;;
32838;SDS011;19182;41.820;12.808;2023-04-03T13:41:54;3.90;;;0.95;;
32838;SDS011;19182;41.820;12.808;2023-04-03T13:44:31;2.42;;;0.90;;
32838;SDS011;19182;41.820;12.808;2023-04-03T13:47:00;0.55;;;0.45;;
32838;SDS011;19182;41.820;12.808;2023-04-03T13:52:34;0.93;;;0.50;;
32838;SDS011;19182;41.820;12.808;2023-04-03T13:55:15;1.73;;;0.90;;
32838;SDS011;19182;41.820;12.808;2023-04-03T14:00:29;3.15;;;0.90;;
32838;SDS011;19182;41.820;12.808;2023-04-03T14:02:59;2.90;;;0.90;;
32838;SDS011;19182;41.820;12.808;2023-04-03T14:05:26;2.40;;;0.88;;
32838;SDS011;19182;41.820;12.808;2023-04-03T14:07:53;3.90;;;0.70;;
32838;SDS011;19182;41.820;12.808;2023-04-03T14:10:21;1.45;;;0.90;;
32838;SDS011;19182;41.820;12.808;2023-04-03T14:12:47;5.75;;;1.08;;
32838;SDS011;19182;41.820;12.808;2023-04-03T14:15:22;2.25;;;0.93;;
32838;SDS011;19182;41.820;12.808;2023-04-03T14:17:51;1.25;;;0.70;;
32838;SDS011;19182;41.820;12.808;2023-04-03T14:20:19;1.45;;;0.95;;
32838;SDS011;19182;41.820;12.808;2023-04-03T14:22:46;2.45;;;1.00;;
32838;SDS011;19182;41.820;12.808;2023-04-03T14:25:14;3.55;;;0.90;;
32838;SDS011;19182;41.820;12.808;2023-04-03T14:27:48;2.65;;;0.95;;
32838;SDS011;19182;41.820;12.808;2023-04-03T14:30:22;1.27;;;0.90;;
32838;SDS011;19182;41.820;12.808;2023-04-03T14:33:15;6.53;;;1.10;;
32838;SDS011;19182;41.820;12.808;2023-04-03T14:35:43;4.85;;;0.93;;
32838;SDS011;19182;41.820;12.808;2023-04-03T14:38:24;3.50;;;0.95;;
32838;SDS011;19182;41.820;12.808;2023-04-03T14:40:52;1.88;;;1.15;;
32838;SDS011;19182;41.820;12.808;2023-04-03T14:43:21;1.45;;;0.88;;
32838;SDS011;19182;41.820;12.808;2023-04-03T14:45:48;1.92;;;0.90;;
32838;SDS011;19182;41.820;12.808;2023-04-03T14:48:18;2.63;;;1.00;;
32838;SDS011;19182;41.820;12.808;2023-04-03T14:50:46;1.73;;;0.98;;
32838;SDS011;19182;41.820;12.808;2023-04-03T14:53:14;11.02;;;1.70;;
32838;SDS011;19182;41.820;12.808;2023-04-03T14:55:42;4.43;;;1.13;;
32838;SDS011;19182;41.820;12.808;2023-04-03T14:58:13;10.18;;;1.67;;
32838;SDS011;19182;41.820;12.808;2023-04-03T15:00:43;4.43;;;1.77;;
32838;SDS011;19182;41.820;12.808;2023-04-03T15:03:20;2.42;;;1.13;;
32838;SDS011;19182;41.820;12.808;2023-04-03T15:05:51;8.52;;;1.20;;
32838;SDS011;19182;41.820;12.808;2023-04-03T15:08:28;3.33;;;1.25;;
32838;SDS011;19182;41.820;12.808;2023-04-03T15:10:56;3.08;;;1.42;;
32838;SDS011;19182;41.820;12.808;2023-04-03T15:13:23;3.80;;;1.33;;
32838;SDS011;19182;41.820;12.808;2023-04-03T15:15:50;1.83;;;1.05;;
32838;SDS011;19182;41.820;12.808;2023-04-03T15:18:18;4.22;;;1.10;;
32838;SDS011;19182;41.820;12.808;2023-04-03T15:20:48;2.63;;;1.10;;
32838;SDS011;19182;41.820;12.808;2023-04-03T15:23:14;2.15;;;1.23;;
32838;SDS011;19182;41.820;12.808;2023-04-03T15:25:45;1.98;;;1.20;;
32838;SDS011;19182;41.820;12.808;2023-04-03T15:28:22;2.10;;;1.00;;
32838;SDS011;19182;41.820;12.808;2023-04-03T15:30:53;3.08;;;1.27;;
32838;SDS011;19182;41.820;12.808;2023-04-03T15:33:21;6.65;;;1.90;;
32838;SDS011;19182;41.820;12.808;2023-04-03T15:35:49;7.32;;;2.22;;
32838;SDS011;19182;41.820;12.808;2023-04-03T15:38:15;2.70;;;1.45;;
32838;SDS011;19182;41.820;12.808;2023-04-03T15:40:44;5.28;;;1.17;;
32838;SDS011;19182;41.820;12.808;2023-04-03T15:43:13;2.80;;;1.30;;
32838;SDS011;19182;41.820;12.808;2023-04-03T15:45:40;2.95;;;0.95;;
32838;SDS011;19182;41.820;12.808;2023-04-03T15:48:06;6.20;;;1.00;;
32838;SDS011;19182;41.820;12.808;2023-04-03T15:50:34;3.58;;;1.10;;
32838;SDS011;19182;41.820;12.808;2023-04-03T15:53:01;2.47;;;0.95;;
32838;SDS011;19182;41.820;12.808;2023-04-03T15:55:28;4.30;;;1.02;;
32838;SDS011;19182;41.820;12.808;2023-04-03T15:57:57;2.63;;;1.20;;
32838;SDS011;19182;41.820;12.808;2023-04-03T16:00:23;2.67;;;1.23;;
32838;SDS011;19182;41.820;12.808;2023-04-03T16:02:52;4.57;;;1.20;;
32838;SDS011;19182;41.820;12.808;2023-04-03T16:05:23;6.60;;;2.30;;
32838;SDS011;19182;41.820;12.808;2023-04-03T16:07:51;7.00;;;3.23;;
32838;SDS011;19182;41.820;12.808;2023-04-03T16:10:18;2.90;;;1.20;;
32838;SDS011;19182;41.820;12.808;2023-04-03T16:12:46;4.78;;;1.27;;
32838;SDS011;19182;41.820;12.808;2023-04-03T16:15:12;3.38;;;1.02;;
32838;SDS011;19182;41.820;12.808;2023-04-03T16:17:38;3.10;;;1.35;;
32838;SDS011;19182;41.820;12.808;2023-04-03T16:20:06;2.03;;;1.05;;
32838;SDS011;19182;41.820;12.808;2023-04-03T16:22:33;3.70;;;1.30;;
32838;SDS011;19182;41.820;12.808;2023-04-03T16:25:00;4.40;;;1.20;;
32838;SDS011;19182;41.820;12.808;2023-04-03T16:27:26;4.38;;;1.25;;
32838;SDS011;19182;41.820;12.808;2023-04-03T16:29:56;5.18;;;1.25;;
32838;SDS011;19182;41.820;12.808;2023-04-03T16:32:24;2.72;;;0.88;;
32838;SDS011;19182;41.820;12.808;2023-04-03T16:34:54;4.45;;;1.45;;
32838;SDS011;19182;41.820;12.808;2023-04-03T16:37:25;3.17;;;1.60;;
32838;SDS011;19182;41.820;12.808;2023-04-03T16:39:52;4.32;;;1.45;;
32838;SDS011;19182;41.820;12.808;2023-04-03T16:42:21;2.95;;;1.63;;
32838;SDS011;19182;41.820;12.808;2023-04-03T16:44:53;4.28;;;1.85;;
32838;SDS011;19182;41.820;12.808;2023-04-03T16:47:28;1.55;;;1.25;;
32838;SDS011;19182;41.820;12.808;2023-04-03T16:49:58;3.78;;;1.65;;
32838;SDS011;19182;41.820;12.808;2023-04-03T16:52:29;6.13;;;1.88;;
32838;SDS011;19182;41.820;12.808;2023-04-03T16:55:00;2.28;;;1.25;;
32838;SDS011;19182;41.820;12.808;2023-04-03T16:57:29;4.07;;;1.50;;
32838;SDS011;19182;41.820;12.808;2023-04-03T16:59:57;4.32;;;2.22;;
32838;SDS011;19182;41.820;12.808;2023-04-03T17:02:24;3.60;;;2.63;;
32838;SDS011;19182;41.820;12.808;2023-04-03T17:07:20;5.75;;;2.20;;
32838;SDS011;19182;41.820;12.808;2023-04-03T17:09:49;3.35;;;1.58;;
32838;SDS011;19182;41.820;12.808;2023-04-03T17:12:15;3.03;;;1.50;;
32838;SDS011;19182;41.820;12.808;2023-04-03T17:14:41;6.00;;;1.58;;
32838;SDS011;19182;41.820;12.808;2023-04-03T17:17:08;8.90;;;3.00;;